AirNav   Get $300 off a Bose A20
 
 1225 users online  

KHEG Herlong Recreational Airport
Jacksonville, Florida, USA

GOING TO JACKSONVILLE?


FAA INFORMATION EFFECTIVE 23 MAY 2019

Location

FAA Identifier: HEG
Lat/Long: 30-16-40.0000N / 081-48-21.4000W
30-16.666667N / 081-48.356667W
30.2777778 / -81.8059444
(estimated)
Elevation: 85.9 ft. / 26.2 m (surveyed)
Variation: 06W (2010)
From city: 8 miles SW of JACKSONVILLE, FL
Time zone: UTC -4 (UTC -5 during Standard Time)
Zip code: 32210

Airport Operations

Airport use: Open to the public
Activation date: 01/1940
Control tower: no
ARTCC: JACKSONVILLE CENTER
FSS: GAINESVILLE FLIGHT SERVICE STATION
NOTAMs facility: GNV (NOTAM-D service available)
Attendance: 0630-1930
Wind indicator: lighted
Segmented circle: yes
Lights: ACTVT MIRL RYS 07/25 & 11/29 - CTAF. PAPI RY 07/25 & RY 11/29 OPERATE CONTINUOUSLY.
Beacon: white-green (lighted land airport)
Operates sunset to sunrise.

Airport Communications

CTAF/UNICOM: 123.0
WX AWOS-3: 119.275 (904-695-0334)
JACKSONVILLE APPROACH: 127.775 127.775 [0700-2300]
JACKSONVILLE DEPARTURE: 127.775 [0700-2300]
WX AWOS-3 at VQQ (5 nm SW): 125.275 (904-778-6934)
WX ASOS at JAX (14 nm NE): PHONE 904-741-4304
WX ASOS at CRG (16 nm E): PHONE 904-646-4670

Nearby radio navigation aids

VOR radial/distance  VOR name  Freq  Var
VQQr052/(5.9)CECIL VOR117.9003W
CRGr260/15.8CRAIG VORTAC114.5003W
SGJr314/31.3ST AUGUSTINE VOR/DME109.4006W

 
NDB name  Hdg/Dist  Freq  Var  ID
DINNS187/11.234406WJA .--- .-
REYNOLDS345/20.233807WRYD .-. -.-- -..

Airport Services

Fuel available: 100LL JET-A
Parking: hangars and tiedowns
Airframe service: MAJOR
Powerplant service: MAJOR
Bottled oxygen: NONE
Bulk oxygen: NONE

Runway Information

Runway 7/25

Dimensions: 3999 x 100 ft. / 1219 x 30 m
Surface: asphalt, in good condition
Weight bearing capacity: 
Single wheel: 30.0
Runway edge lights: medium intensity
Gradient: GRADIENT DATA ESTIMATED ALL RWYS.
RUNWAY 7  RUNWAY 25
Latitude: 30-16.581760N30-16.864053N
Longitude: 081-48.894383W081-48.207378W
Elevation: 73.4 ft.79.9 ft.
Traffic pattern: leftleft
Runway heading: 071 magnetic, 065 true251 magnetic, 245 true
Markings: basic, in fair conditionnonprecision, in fair condition
Visual slope indicator: 2-light PAPI on left (3.00 degrees glide path)2-light PAPI on left (3.00 degrees glide path)
Touchdown point: yes, no lightsyes, no lights
Obstructions: 50 ft. tree, 1395 ft. from runway, 210 ft. right of centerline, 24:1 slope to clear60 ft. trees, 2215 ft. from runway, 50 ft. right of centerline, 34:1 slope to clear

Runway 11/29

Dimensions: 3500 x 100 ft. / 1067 x 30 m
Surface: asphalt, in good condition
Weight bearing capacity: 
Single wheel: 30.0
Runway edge lights: medium intensity
RUNWAY 11  RUNWAY 29
Latitude: 30-16.700740N30-16.506312N
Longitude: 081-48.447685W081-47.821343W
Elevation: 84.6 ft.82.7 ft.
Traffic pattern: leftleft
Runway heading: 116 magnetic, 110 true296 magnetic, 290 true
Markings: basic, in good conditionbasic, in good condition
Visual slope indicator: 2-light PAPI on left (3.00 degrees glide path)2-light PAPI on left (3.00 degrees glide path)
Touchdown point: yes, no lightsyes, no lights
Obstructions: 76 ft. trees, 2235 ft. from runway, 27:1 slope to clear50 ft. trees, 1035 ft. from runway, 65 ft. right of centerline, 20:1 slope to clear

Airport Ownership and Management from official FAA records

Ownership: Publicly-owned
Owner: JACKSONVILLE AVIATION AUTHORITY
14201 PECAN PARK ROAD
JACKSONVILLE, FL 32218
Phone (904) 741-2069
JACKSONVILLE AVIATION AUTHORITY COMMUNICATION CENTER 904-741-2040.
Manager: ROLF RIECHMANN
9300 NORMANDY BLVD., SUITE 4
JACKSONVILLE, FL 32221-5522
Phone (904) 783-2805
FBO (904) 783-2805.

Airport Operational Statistics

Aircraft based on the field: 166
Single engine airplanes: 121
Multi engine airplanes: 13
Helicopters: 2
Gliders airplanes: 13
Ultralights: 17
    
Aircraft operations: avg 221/day *
53% local general aviation
43% transient general aviation
3% military
* for 12-month period ending 06 February 2018

Additional Remarks

ULTRALIGHT & GLIDER ACTIVITY ON & INVOF ARPT.
GCO AVBL ON FRE 121.725 THRU JAX CLEARANCE DELIVERY AND GNV AFSS.

Instrument Procedures

NOTE: All procedures below are presented as PDF files. If you need a reader for these files, you should download the free Adobe Reader.

NOT FOR NAVIGATION. Please procure official charts for flight.
FAA instrument procedures published for use from 23 May 2019 at 0901Z to 20 June 2019 at 0900Z.

 
IAPs - Instrument Approach Procedures
RNAV (GPS) RWY 25   download (279KB)
NDB-A   download (209KB)
NOTE: Special Take-Off Minimums/Departure Procedures apply   download (162KB)

Other nearby airports with instrument procedures:

KVQQ - Cecil Airport (5 nm SW)
KNIP - Jacksonville Naval Air Station (Towers Field) (7 nm E)
KJAX - Jacksonville International Airport (14 nm NE)
KCRG - Jacksonville Executive Airport at Craig (16 nm E)
KNRB - Mayport Naval Station (Adm David L. McDonald Field) (21 nm E)
 
Loc | Ops | Rwys | IFR | FBO | Links
Com | Nav | Svcs | Stats | Notes
Area around KHEG (Herlong Recreational Airport)
 
Road maps at: MapQuest Bing Google
 
Aerial photo
WARNING: Photo may not be current or correct
Aerial photo of KHEG (Herlong Recreational Airport)
Photo by Michelle Nifong
Taken in November 2009

Do you have a better or more recent aerial photo of Herlong Recreational Airport that you would like to share? If so, please send us your photo.

 
Sectional chart

 
Airport diagram
CAUTION: Diagram may not be current
Diagram of KHEG (Herlong Recreational Airport)
 
Airport distance calculator
Flying to Herlong Recreational Airport? Find the distance to fly.

From to KHEG

Sunrise and sunset
Times for 24-May-2019
 Local
(UTC-4)
 Zulu
(UTC)
Morning civil twilight06:0310:03
Sunrise06:3010:30
Sunset20:1900:19
Evening civil twilight20:4500:45

Current date and time
Zulu (UTC)  24-May-2019 20:00:50
Local (UTC-4)  24-May-2019 16:00:50
 
METAR
KHEG 241955Z AUTO 08007KT 040V100 6SM HZ CLR 33/18 A3013 RMK AO2
KVQQ 
5nm SW 
241953Z 13007KT 090V170 10SM CLR 36/16 A3011
KNIP 
8nm SE 
241953Z 12007KT 10SM FEW055 32/18 A3013 RMK AO2 SLP197 T03220178
KJAX 
15nm NE 
241856Z 06007KT 10SM FEW050 33/18 A3012 RMK AO2 SLP199 T03280183
KCRG 
15nm E 
241953Z 09007KT 10SM CLR 30/18 A3013 RMK AO2 SLP203 T03000178
TAF
KVQQ 
5nm SW 
241720Z 2418/2518 08008KT P6SM FEW050 FM250000 13004KT P6SM SKC
KNIP 
8nm SE 
2415/2515 06007KT 9999 FEW035 FEW250 QNH3013INS FM241800 09011KT 9999 SCT045 SCT250 QNH3006INS FM250000 15008KT 9999 FEW250 QNH3007INS FM250400 18006KT 9999 FEW040 QNH3007INS FM250900 VRB04KT 9999 SCT030 SCT250 QNH3006INS T33/2420Z T23/2511Z FN20061
KJAX 
15nm NE 
241720Z 2418/2518 10009KT P6SM FEW050 FM250000 14005KT P6SM SKC
KCRG 
15nm E 
241720Z 2418/2518 09009KT P6SM FEW050 FM250000 14005KT P6SM SKC
NOTAMs
Click for the latest NOTAMs
NOTAMs are issued by the DoD/FAA and will open in a separate window not controlled by AirNav.

 

 
 

Would you like to see your business listed on this page?

 If your business provides an interesting product or service to pilots, flight crews, aircraft, or users of the Herlong Recreational Airport, you should consider listing it here.  To start the listing process, click on the button below
 
Add a business
 

Other Pages about Herlong Recreational Airport

www.jaa.aero/...
 
Update a link
 
Copyright © AirNav, LLC. All rights reserved. Privacy Policy  Contact